createdAt,value
2023-01-22T00:00:42.865Z,17.84
2023-01-22T00:10:44.091Z,17.81
2023-01-22T00:20:45.327Z,17.82
2023-01-22T00:30:46.597Z,17.78
2023-01-22T00:40:47.821Z,17.85
2023-01-22T00:50:49.098Z,17.88
2023-01-22T01:00:50.399Z,17.80
2023-01-22T01:10:51.668Z,17.89
2023-01-22T01:20:52.886Z,17.86
2023-01-22T01:30:54.269Z,17.84
2023-01-22T01:40:55.600Z,17.85
2023-01-22T01:50:56.869Z,17.83
2023-01-22T02:00:58.160Z,17.79
2023-01-22T02:10:59.519Z,17.81
2023-01-22T02:21:00.771Z,17.82
2023-01-22T02:31:02.113Z,17.81
2023-01-22T02:41:03.402Z,17.78
2023-01-22T02:51:04.661Z,17.76
2023-01-22T03:01:05.940Z,17.75
2023-01-22T03:11:07.199Z,17.71
2023-01-22T03:21:08.477Z,17.70
2023-01-22T03:31:09.759Z,17.71
2023-01-22T03:41:11.079Z,17.59
2023-01-22T03:51:12.387Z,17.62
2023-01-22T04:01:13.795Z,17.54
2023-01-22T04:11:15.061Z,17.63
2023-01-22T04:21:16.323Z,17.57
2023-01-22T04:31:17.668Z,17.54
2023-01-22T04:41:18.978Z,17.51
2023-01-22T04:51:20.247Z,17.57
2023-01-22T05:01:21.523Z,17.53
2023-01-22T05:11:22.892Z,17.51
2023-01-22T05:21:24.144Z,17.53
2023-01-22T05:31:25.491Z,17.49
2023-01-22T05:41:26.785Z,17.47
2023-01-22T05:51:28.016Z,17.46
2023-01-22T06:01:29.265Z,17.43
2023-01-22T06:11:30.548Z,17.43
2023-01-22T06:21:31.781Z,17.40
2023-01-22T06:31:33.058Z,17.38
2023-01-22T06:41:34.317Z,17.38
2023-01-22T06:51:35.551Z,17.30
2023-01-22T07:01:36.775Z,17.33
2023-01-22T07:11:38.048Z,17.29
2023-01-22T07:21:39.293Z,17.35
2023-01-22T07:31:40.553Z,17.36
2023-01-22T07:41:41.834Z,17.36
2023-01-22T07:51:43.171Z,17.38
2023-01-22T08:01:44.504Z,17.38
2023-01-22T08:11:45.761Z,17.35
2023-01-22T08:21:46.994Z,17.40
2023-01-22T08:31:48.319Z,17.31
2023-01-22T08:41:49.606Z,17.43
2023-01-22T08:51:50.851Z,17.39
2023-01-22T09:01:52.146Z,17.42
2023-01-22T09:11:53.444Z,17.35
2023-01-22T09:21:54.715Z,17.40
2023-01-22T09:31:56.018Z,17.42
2023-01-22T09:41:57.359Z,17.48
2023-01-22T09:51:59.065Z,17.51
2023-01-22T10:02:00.357Z,17.54
2023-01-22T10:12:01.640Z,17.55
2023-01-22T10:22:03.192Z,17.58
2023-01-22T10:32:04.481Z,17.56
2023-01-22T10:42:05.727Z,17.59
2023-01-22T10:52:06.993Z,17.64
2023-01-22T11:02:08.297Z,17.64
2023-01-22T11:12:09.699Z,17.68
2023-01-22T11:22:10.967Z,17.69
2023-01-22T11:32:12.230Z,17.73
2023-01-22T11:42:13.462Z,17.77
2023-01-22T11:52:14.698Z,17.78
2023-01-22T12:02:15.959Z,17.77
2023-01-22T12:12:17.228Z,17.78
2023-01-22T12:22:18.577Z,17.82
2023-01-22T12:32:20.294Z,17.81
2023-01-22T12:42:28.854Z,17.84
2023-01-22T12:52:37.421Z,17.80
2023-01-22T13:02:47.361Z,17.83
2023-01-22T13:12:53.393Z,17.89
2023-01-22T13:22:58.537Z,17.86
2023-01-22T13:32:59.835Z,17.87
2023-01-22T13:43:02.251Z,17.87
2023-01-22T13:53:03.496Z,17.85
2023-01-22T14:03:04.752Z,17.88
2023-01-22T14:13:06.042Z,17.83
2023-01-22T14:23:07.324Z,17.85
2023-01-22T14:33:08.721Z,17.81
2023-01-22T14:43:10.043Z,17.81
2023-01-22T15:03:40.267Z,17.71
2023-01-22T15:13:41.552Z,17.73
2023-01-22T15:23:42.832Z,17.69
2023-01-22T15:33:44.103Z,17.69
2023-01-22T15:43:45.363Z,17.71
2023-01-22T15:53:46.602Z,17.67
2023-01-22T16:03:47.984Z,17.66
2023-01-22T16:13:49.214Z,17.65
2023-01-22T16:23:50.454Z,17.56
2023-01-22T16:33:51.702Z,17.67
2023-01-22T16:43:52.959Z,17.54
2023-01-22T16:53:54.211Z,17.57
2023-01-22T17:03:55.458Z,17.61
2023-01-22T17:13:56.730Z,17.59
2023-01-22T17:23:57.995Z,17.51
2023-01-22T17:33:59.267Z,17.51
2023-01-22T17:44:00.672Z,17.46
2023-01-22T17:54:01.943Z,17.54
2023-01-22T18:04:03.198Z,17.53
2023-01-22T18:14:04.578Z,17.52
2023-01-22T18:24:05.880Z,17.47
2023-01-22T18:34:07.176Z,17.53
2023-01-22T18:44:08.426Z,17.46
2023-01-22T18:54:09.700Z,17.42
2023-01-22T19:04:10.950Z,17.46
2023-01-22T19:14:12.187Z,17.40
2023-01-22T19:24:13.430Z,17.43
2023-01-22T19:34:14.697Z,17.45
2023-01-22T19:44:15.960Z,17.42
2023-01-22T19:54:17.233Z,17.36
2023-01-22T20:04:18.488Z,17.38
2023-01-22T20:14:19.755Z,17.37
2023-01-22T20:24:21.021Z,17.32
2023-01-22T20:34:22.550Z,17.35
2023-01-22T20:44:23.839Z,17.33
2023-01-22T20:54:25.130Z,17.33
2023-01-22T21:04:26.362Z,17.34
2023-01-22T21:14:27.624Z,17.34
2023-01-22T21:24:28.866Z,17.28
2023-01-22T21:34:30.175Z,17.32
2023-01-22T21:44:31.453Z,17.27
2023-01-22T21:54:32.712Z,17.30
2023-01-22T22:04:33.987Z,17.26
2023-01-22T22:14:35.330Z,17.23
2023-01-22T22:24:36.603Z,17.26
2023-01-22T22:34:37.983Z,17.29
2023-01-22T22:44:39.221Z,17.24
2023-01-22T22:54:40.572Z,17.25
2023-01-22T23:04:41.891Z,17.26
2023-01-22T23:14:43.201Z,17.24
2023-01-22T23:24:44.497Z,17.31
2023-01-22T23:34:45.773Z,17.32
2023-01-22T23:44:47.038Z,17.37
2023-01-22T23:54:48.300Z,17.33
